Gulf Stream, Florida
Current Conditions -  °F | °C
As of 5:55 PM on Tuesday 21 Oct 2014 (Local Time) from KBCT Reporting Station
Scattered Clouds Scattered Clouds  
Wind Chill: 73°   Ceiling: Unl
Heat Index: 73°   Visibility: 10mi
Dew Point: 68°   Wind: 7mph
Humidity: 83%   Direction: 20°NNE
Pressure: 29.94"   Gusts: NA
Location:  26.4557°N, 80.0677°W
Report Text: KBCT 212155Z 02006KT 10SM SCT036 23/20 A2994
Loading
Personal Weather Stations






























Interactive Weather Map
Tropical Storm Tracking
New forecast layout! Learn more

10-Day Weather Forecast

Advertisements
Track Severe Weather on mobile